sensor_id;sensor_type;location;lat;lon;timestamp;pressure;altitude;pressure_sealevel;temperature;humidity
68948;BME280;55996;49.546;7.400;2022-07-29T00:02:20;98434.41;;;19.43;59.79
68948;BME280;55996;49.546;7.400;2022-07-29T00:04:46;98443.75;;;19.35;60.08
68948;BME280;55996;49.546;7.400;2022-07-29T00:07:11;98438.66;;;19.32;60.64
68948;BME280;55996;49.546;7.400;2022-07-29T00:09:37;98438.06;;;19.29;60.75
68948;BME280;55996;49.546;7.400;2022-07-29T00:12:03;98436.91;;;19.20;60.74
68948;BME280;55996;49.546;7.400;2022-07-29T00:14:28;98439.50;;;19.09;60.38
68948;BME280;55996;49.546;7.400;2022-07-29T00:16:54;98433.69;;;19.03;61.09
68948;BME280;55996;49.546;7.400;2022-07-29T00:19:19;98438.25;;;19.01;61.99
68948;BME280;55996;49.546;7.400;2022-07-29T00:21:45;98444.72;;;18.97;61.55
68948;BME280;55996;49.546;7.400;2022-07-29T00:24:10;98444.31;;;18.78;62.04
68948;BME280;55996;49.546;7.400;2022-07-29T00:26:36;98446.44;;;18.73;62.34
68948;BME280;55996;49.546;7.400;2022-07-29T00:29:03;98438.38;;;18.74;62.54
68948;BME280;55996;49.546;7.400;2022-07-29T00:31:29;98434.50;;;18.67;62.43
68948;BME280;55996;49.546;7.400;2022-07-29T00:33:55;98426.25;;;18.46;63.29
68948;BME280;55996;49.546;7.400;2022-07-29T00:36:21;98430.34;;;18.63;63.95
68948;BME280;55996;49.546;7.400;2022-07-29T00:38:50;98427.38;;;18.67;63.29
68948;BME280;55996;49.546;7.400;2022-07-29T00:41:17;98417.34;;;18.47;63.42
68948;BME280;55996;49.546;7.400;2022-07-29T00:43:43;98414.16;;;18.42;63.46
68948;BME280;55996;49.546;7.400;2022-07-29T00:46:09;98428.25;;;18.55;63.95
68948;BME280;55996;49.546;7.400;2022-07-29T00:48:35;98413.09;;;18.44;63.58
68948;BME280;55996;49.546;7.400;2022-07-29T00:51:02;98424.34;;;18.35;63.88
68948;BME280;55996;49.546;7.400;2022-07-29T00:53:29;98416.59;;;18.32;64.83
68948;BME280;55996;49.546;7.400;2022-07-29T00:55:55;98417.03;;;18.13;64.64
68948;BME280;55996;49.546;7.400;2022-07-29T00:58:21;98421.28;;;18.15;65.03
68948;BME280;55996;49.546;7.400;2022-07-29T01:00:47;98413.34;;;18.15;64.60
68948;BME280;55996;49.546;7.400;2022-07-29T01:03:13;98406.22;;;18.16;64.78
68948;BME280;55996;49.546;7.400;2022-07-29T01:05:40;98413.34;;;18.02;65.12
68948;BME280;55996;49.546;7.400;2022-07-29T01:08:06;98418.09;;;18.10;65.92
68948;BME280;55996;49.546;7.400;2022-07-29T01:10:32;98404.44;;;18.03;65.94
68948;BME280;55996;49.546;7.400;2022-07-29T01:12:58;98404.28;;;17.92;66.52
68948;BME280;55996;49.546;7.400;2022-07-29T01:15:25;98411.94;;;17.97;66.78
68948;BME280;55996;49.546;7.400;2022-07-29T01:18:10;98414.03;;;17.79;66.66
68948;BME280;55996;49.546;7.400;2022-07-29T01:29:30;98416.34;;;17.83;67.14
68948;BME280;55996;49.546;7.400;2022-07-29T01:32:15;98414.84;;;17.66;67.03
68948;BME280;55996;49.546;7.400;2022-07-29T01:35:02;98409.22;;;17.71;67.12
68948;BME280;55996;49.546;7.400;2022-07-29T01:37:48;98421.91;;;17.66;68.54
68948;BME280;55996;49.546;7.400;2022-07-29T01:40:31;98415.66;;;17.54;69.30
68948;BME280;55996;49.546;7.400;2022-07-29T01:43:02;98420.78;;;17.42;68.42
68948;BME280;55996;49.546;7.400;2022-07-29T01:45:41;98428.72;;;17.42;69.66
68948;BME280;55996;49.546;7.400;2022-07-29T01:48:29;98425.91;;;17.31;69.03
68948;BME280;55996;49.546;7.400;2022-07-29T01:51:31;98430.22;;;17.47;69.75
68948;BME280;55996;49.546;7.400;2022-07-29T01:54:10;98426.41;;;17.51;69.88
68948;BME280;55996;49.546;7.400;2022-07-29T01:56:39;98426.22;;;17.54;69.51
68948;BME280;55996;49.546;7.400;2022-07-29T01:59:07;98429.59;;;17.56;69.71
68948;BME280;55996;49.546;7.400;2022-07-29T02:01:34;98434.69;;;17.59;70.60
68948;BME280;55996;49.546;7.400;2022-07-29T02:04:03;98430.34;;;17.58;69.48
68948;BME280;55996;49.546;7.400;2022-07-29T02:06:29;98423.03;;;17.49;68.52
68948;BME280;55996;49.546;7.400;2022-07-29T02:08:58;98417.06;;;17.32;69.04
68948;BME280;55996;49.546;7.400;2022-07-29T02:11:25;98425.75;;;17.34;69.63
68948;BME280;55996;49.546;7.400;2022-07-29T02:13:52;98424.44;;;17.27;70.03
68948;BME280;55996;49.546;7.400;2022-07-29T02:16:21;98426.31;;;17.25;70.43
68948;BME280;55996;49.546;7.400;2022-07-29T02:18:49;98419.81;;;17.31;70.86
68948;BME280;55996;49.546;7.400;2022-07-29T02:21:21;98417.59;;;17.37;71.04
68948;BME280;55996;49.546;7.400;2022-07-29T02:23:48;98424.03;;;17.33;70.60
68948;BME280;55996;49.546;7.400;2022-07-29T02:26:17;98411.19;;;17.14;70.91
68948;BME280;55996;49.546;7.400;2022-07-29T02:28:43;98416.53;;;17.13;70.65
68948;BME280;55996;49.546;7.400;2022-07-29T02:31:10;98412.41;;;17.08;70.90
68948;BME280;55996;49.546;7.400;2022-07-29T02:33:37;98414.34;;;16.92;72.23
68948;BME280;55996;49.546;7.400;2022-07-29T02:36:03;98419.25;;;16.98;73.05
68948;BME280;55996;49.546;7.400;2022-07-29T02:38:30;98415.53;;;16.86;73.41
68948;BME280;55996;49.546;7.400;2022-07-29T02:41:44;98424.78;;;16.79;73.92
68948;BME280;55996;49.546;7.400;2022-07-29T02:44:21;98414.81;;;16.70;74.69
68948;BME280;55996;49.546;7.400;2022-07-29T02:47:04;98418.84;;;16.75;74.67
68948;BME280;55996;49.546;7.400;2022-07-29T02:49:36;98426.38;;;16.82;75.11
68948;BME280;55996;49.546;7.400;2022-07-29T02:52:08;98425.66;;;16.80;75.75
68948;BME280;55996;49.546;7.400;2022-07-29T02:54:56;98425.16;;;16.87;75.52
68948;BME280;55996;49.546;7.400;2022-07-29T02:59:57;98423.38;;;17.02;76.52
68948;BME280;55996;49.546;7.400;2022-07-29T03:02:25;98422.78;;;17.12;77.98
68948;BME280;55996;49.546;7.400;2022-07-29T03:04:53;98420.84;;;17.28;77.69
68948;BME280;55996;49.546;7.400;2022-07-29T03:07:20;98420.47;;;17.34;76.83
68948;BME280;55996;49.546;7.400;2022-07-29T03:09:47;98423.88;;;17.49;76.12
68948;BME280;55996;49.546;7.400;2022-07-29T03:12:13;98432.34;;;17.54;74.80
68948;BME280;55996;49.546;7.400;2022-07-29T03:14:39;98428.88;;;17.54;74.50
68948;BME280;55996;49.546;7.400;2022-07-29T03:17:05;98438.88;;;17.49;74.73
68948;BME280;55996;49.546;7.400;2022-07-29T03:19:31;98426.56;;;17.35;75.54
68948;BME280;55996;49.546;7.400;2022-07-29T03:21:57;98426.63;;;17.48;75.78
68948;BME280;55996;49.546;7.400;2022-07-29T03:24:35;98423.41;;;17.42;74.92
68948;BME280;55996;49.546;7.400;2022-07-29T03:27:03;98432.09;;;17.45;74.87
68948;BME280;55996;49.546;7.400;2022-07-29T03:29:29;98431.34;;;17.42;75.15
68948;BME280;55996;49.546;7.400;2022-07-29T03:31:55;98433.91;;;17.44;75.58
68948;BME280;55996;49.546;7.400;2022-07-29T03:34:21;98430.16;;;17.34;76.16
68948;BME280;55996;49.546;7.400;2022-07-29T03:36:47;98427.22;;;17.38;76.02
68948;BME280;55996;49.546;7.400;2022-07-29T03:39:17;98425.34;;;17.40;76.07
68948;BME280;55996;49.546;7.400;2022-07-29T03:41:45;98425.66;;;17.49;76.19
68948;BME280;55996;49.546;7.400;2022-07-29T03:44:13;98435.75;;;17.56;76.98
68948;BME280;55996;49.546;7.400;2022-07-29T03:46:41;98429.41;;;17.59;76.12
68948;BME280;55996;49.546;7.400;2022-07-29T03:49:09;98421.97;;;17.51;75.60
68948;BME280;55996;49.546;7.400;2022-07-29T03:51:36;98425.59;;;17.63;75.09
68948;BME280;55996;49.546;7.400;2022-07-29T03:54:03;98420.09;;;17.53;74.75
68948;BME280;55996;49.546;7.400;2022-07-29T03:56:29;98417.53;;;17.52;76.06
68948;BME280;55996;49.546;7.400;2022-07-29T03:58:57;98419.97;;;17.55;75.90
68948;BME280;55996;49.546;7.400;2022-07-29T04:01:24;98428.06;;;17.66;75.89
68948;BME280;55996;49.546;7.400;2022-07-29T04:03:51;98432.59;;;17.64;75.90
68948;BME280;55996;49.546;7.400;2022-07-29T04:06:16;98421.06;;;17.65;76.01
68948;BME280;55996;49.546;7.400;2022-07-29T04:08:42;98410.81;;;17.61;75.49
68948;BME280;55996;49.546;7.400;2022-07-29T04:11:07;98425.81;;;17.60;75.42
68948;BME280;55996;49.546;7.400;2022-07-29T04:13:33;98423.88;;;17.49;75.75
68948;BME280;55996;49.546;7.400;2022-07-29T04:15:59;98424.41;;;17.54;75.15
68948;BME280;55996;49.546;7.400;2022-07-29T04:18:25;98434.16;;;17.54;76.56
68948;BME280;55996;49.546;7.400;2022-07-29T04:20:50;98438.03;;;17.48;77.04
68948;BME280;55996;49.546;7.400;2022-07-29T04:23:16;98412.84;;;17.42;77.05
68948;BME280;55996;49.546;7.400;2022-07-29T04:25:42;98416.47;;;17.41;76.19
68948;BME280;55996;49.546;7.400;2022-07-29T04:28:08;98445.69;;;17.53;75.42
68948;BME280;55996;49.546;7.400;2022-07-29T04:30:35;98425.81;;;17.33;75.92
68948;BME280;55996;49.546;7.400;2022-07-29T04:33:02;98445.31;;;17.45;75.64
68948;BME280;55996;49.546;7.400;2022-07-29T04:35:29;98447.78;;;17.48;75.53
68948;BME280;55996;49.546;7.400;2022-07-29T04:37:54;98439.28;;;17.42;75.51
68948;BME280;55996;49.546;7.400;2022-07-29T04:40:20;98452.75;;;17.25;76.92
68948;BME280;55996;49.546;7.400;2022-07-29T04:42:45;98456.16;;;17.27;77.66
68948;BME280;55996;49.546;7.400;2022-07-29T04:45:11;98445.84;;;17.37;78.35
68948;BME280;55996;49.546;7.400;2022-07-29T04:47:36;98458.97;;;17.51;77.60
68948;BME280;55996;49.546;7.400;2022-07-29T04:50:02;98467.91;;;17.63;76.61
68948;BME280;55996;49.546;7.400;2022-07-29T04:52:28;98466.03;;;17.65;77.79
68948;BME280;55996;49.546;7.400;2022-07-29T04:54:53;98460.47;;;17.55;76.71
68948;BME280;55996;49.546;7.400;2022-07-29T04:57:19;98464.50;;;17.61;77.34
68948;BME280;55996;49.546;7.400;2022-07-29T04:59:44;98459.22;;;17.61;76.95
68948;BME280;55996;49.546;7.400;2022-07-29T05:02:10;98473.69;;;17.83;76.20
68948;BME280;55996;49.546;7.400;2022-07-29T05:04:35;98462.09;;;17.98;76.50
68948;BME280;55996;49.546;7.400;2022-07-29T05:07:01;98455.25;;;18.09;76.98
68948;BME280;55996;49.546;7.400;2022-07-29T05:09:26;98464.66;;;18.13;75.55
68948;BME280;55996;49.546;7.400;2022-07-29T05:11:51;98462.13;;;18.24;74.15
68948;BME280;55996;49.546;7.400;2022-07-29T05:14:17;98466.88;;;18.32;73.06
68948;BME280;55996;49.546;7.400;2022-07-29T05:16:42;98460.44;;;18.49;72.72
68948;BME280;55996;49.546;7.400;2022-07-29T05:19:08;98458.09;;;18.70;72.28
68948;BME280;55996;49.546;7.400;2022-07-29T05:21:34;98458.28;;;18.93;73.09
68948;BME280;55996;49.546;7.400;2022-07-29T05:23:59;98453.28;;;19.14;71.82
68948;BME280;55996;49.546;7.400;2022-07-29T05:26:25;98452.53;;;19.36;70.14
68948;BME280;55996;49.546;7.400;2022-07-29T05:28:50;98452.88;;;19.56;68.01
68948;BME280;55996;49.546;7.400;2022-07-29T05:31:16;98440.06;;;19.74;66.57
68948;BME280;55996;49.546;7.400;2022-07-29T05:33:41;98456.34;;;20.05;66.29
68948;BME280;55996;49.546;7.400;2022-07-29T05:36:07;98450.25;;;20.27;64.88
68948;BME280;55996;49.546;7.400;2022-07-29T05:38:34;98447.75;;;20.48;65.58
68948;BME280;55996;49.546;7.400;2022-07-29T05:40:59;98438.44;;;20.65;64.45
68948;BME280;55996;49.546;7.400;2022-07-29T05:43:28;98435.44;;;20.81;62.59
68948;BME280;55996;49.546;7.400;2022-07-29T05:45:54;98443.53;;;21.14;62.10
68948;BME280;55996;49.546;7.400;2022-07-29T05:48:19;98431.44;;;21.42;61.21
68948;BME280;55996;49.546;7.400;2022-07-29T05:50:45;98431.81;;;21.81;59.25
68948;BME280;55996;49.546;7.400;2022-07-29T05:53:11;98443.56;;;22.21;57.79
68948;BME280;55996;49.546;7.400;2022-07-29T05:55:36;98442.00;;;22.61;56.04
68948;BME280;55996;49.546;7.400;2022-07-29T05:58:02;98431.31;;;22.92;55.16
68948;BME280;55996;49.546;7.400;2022-07-29T06:00:27;98413.72;;;23.20;53.54
68948;BME280;55996;49.546;7.400;2022-07-29T06:02:53;98446.75;;;23.58;52.27
68948;BME280;55996;49.546;7.400;2022-07-29T06:05:18;98447.75;;;23.87;50.56
68948;BME280;55996;49.546;7.400;2022-07-29T06:07:44;98432.03;;;23.93;50.67
68948;BME280;55996;49.546;7.400;2022-07-29T06:10:09;98438.25;;;24.41;48.82
68948;BME280;55996;49.546;7.400;2022-07-29T06:12:35;98443.66;;;24.69;48.15
68948;BME280;55996;49.546;7.400;2022-07-29T06:15:01;98432.78;;;25.08;46.79
68948;BME280;55996;49.546;7.400;2022-07-29T06:17:26;98435.16;;;25.39;46.37
68948;BME280;55996;49.546;7.400;2022-07-29T06:19:52;98437.81;;;25.75;44.95
68948;BME280;55996;49.546;7.400;2022-07-29T06:22:17;98435.53;;;25.81;44.61
68948;BME280;55996;49.546;7.400;2022-07-29T06:24:43;98440.75;;;25.64;45.38
68948;BME280;55996;49.546;7.400;2022-07-29T06:27:10;98437.69;;;25.31;45.92
68948;BME280;55996;49.546;7.400;2022-07-29T06:29:36;98441.03;;;25.43;47.23
68948;BME280;55996;49.546;7.400;2022-07-29T06:32:02;98437.75;;;25.49;45.82
68948;BME280;55996;49.546;7.400;2022-07-29T06:34:27;98446.47;;;25.69;46.10
68948;BME280;55996;49.546;7.400;2022-07-29T06:36:53;98444.09;;;25.84;44.98
68948;BME280;55996;49.546;7.400;2022-07-29T06:39:18;98427.41;;;25.90;43.74
68948;BME280;55996;49.546;7.400;2022-07-29T06:41:47;98439.97;;;26.34;43.17
68948;BME280;55996;49.546;7.400;2022-07-29T06:44:14;98434.53;;;26.52;43.25
68948;BME280;55996;49.546;7.400;2022-07-29T06:46:39;98440.59;;;26.81;41.74
68948;BME280;55996;49.546;7.400;2022-07-29T06:49:05;98435.06;;;26.56;39.68
68948;BME280;55996;49.546;7.400;2022-07-29T06:51:30;98444.28;;;26.53;39.88
68948;BME280;55996;49.546;7.400;2022-07-29T06:53:56;98442.75;;;26.51;39.38
68948;BME280;55996;49.546;7.400;2022-07-29T06:56:22;98449.34;;;26.12;40.88
68948;BME280;55996;49.546;7.400;2022-07-29T06:58:48;98450.09;;;26.04;39.89
68948;BME280;55996;49.546;7.400;2022-07-29T07:01:13;98452.19;;;25.92;40.10
68948;BME280;55996;49.546;7.400;2022-07-29T07:03:39;98455.41;;;25.60;40.63
68948;BME280;55996;49.546;7.400;2022-07-29T07:06:04;98459.41;;;25.56;39.87
68948;BME280;55996;49.546;7.400;2022-07-29T07:08:30;98458.69;;;25.54;40.74
68948;BME280;55996;49.546;7.400;2022-07-29T07:10:55;98465.13;;;25.61;40.60
68948;BME280;55996;49.546;7.400;2022-07-29T07:13:22;98458.81;;;25.34;41.19
68948;BME280;55996;49.546;7.400;2022-07-29T07:15:47;98471.69;;;25.49;40.81
68948;BME280;55996;49.546;7.400;2022-07-29T07:18:14;98478.81;;;25.30;41.82
68948;BME280;55996;49.546;7.400;2022-07-29T07:20:40;98476.38;;;25.19;41.84
68948;BME280;55996;49.546;7.400;2022-07-29T07:23:06;98475.50;;;24.90;41.35
68948;BME280;55996;49.546;7.400;2022-07-29T07:25:31;98481.22;;;25.05;42.04
68948;BME280;55996;49.546;7.400;2022-07-29T07:27:57;98471.50;;;25.04;41.85
68948;BME280;55996;49.546;7.400;2022-07-29T07:30:22;98470.28;;;24.98;41.85
68948;BME280;55996;49.546;7.400;2022-07-29T07:32:48;98470.44;;;24.97;42.13
68948;BME280;55996;49.546;7.400;2022-07-29T07:35:13;98475.47;;;25.00;43.03
68948;BME280;55996;49.546;7.400;2022-07-29T07:37:39;98469.72;;;24.95;41.73
68948;BME280;55996;49.546;7.400;2022-07-29T07:40:10;98472.09;;;24.98;42.16
68948;BME280;55996;49.546;7.400;2022-07-29T07:42:37;98469.78;;;24.85;43.93
68948;BME280;55996;49.546;7.400;2022-07-29T07:45:03;98474.84;;;24.88;44.36
68948;BME280;55996;49.546;7.400;2022-07-29T07:47:30;98471.03;;;24.91;43.05
68948;BME280;55996;49.546;7.400;2022-07-29T07:49:55;98471.69;;;24.93;42.89
68948;BME280;55996;49.546;7.400;2022-07-29T07:52:21;98462.09;;;25.00;43.18
68948;BME280;55996;49.546;7.400;2022-07-29T07:54:48;98466.97;;;25.14;42.61
68948;BME280;55996;49.546;7.400;2022-07-29T07:57:14;98468.66;;;25.16;42.66
68948;BME280;55996;49.546;7.400;2022-07-29T07:59:40;98463.69;;;25.21;42.51
68948;BME280;55996;49.546;7.400;2022-07-29T08:02:06;98459.31;;;25.20;42.26
68948;BME280;55996;49.546;7.400;2022-07-29T08:04:32;98472.41;;;24.95;43.01
68948;BME280;55996;49.546;7.400;2022-07-29T08:06:58;98465.91;;;24.97;43.27
68948;BME280;55996;49.546;7.400;2022-07-29T08:09:25;98467.44;;;25.00;43.70
68948;BME280;55996;49.546;7.400;2022-07-29T08:11:51;98460.69;;;25.06;45.13
68948;BME280;55996;49.546;7.400;2022-07-29T08:14:16;98462.88;;;25.10;43.58
68948;BME280;55996;49.546;7.400;2022-07-29T08:16:42;98466.97;;;25.14;43.65
68948;BME280;55996;49.546;7.400;2022-07-29T08:19:08;98476.19;;;25.20;43.57
68948;BME280;55996;49.546;7.400;2022-07-29T08:21:34;98472.63;;;25.39;43.66
68948;BME280;55996;49.546;7.400;2022-07-29T08:24:00;98460.75;;;25.60;44.27
68948;BME280;55996;49.546;7.400;2022-07-29T08:26:44;98469.41;;;25.90;43.02
68948;BME280;55996;49.546;7.400;2022-07-29T08:29:10;98472.78;;;26.10;41.70
68948;BME280;55996;49.546;7.400;2022-07-29T08:31:36;98472.22;;;26.24;42.24
68948;BME280;55996;49.546;7.400;2022-07-29T08:34:03;98479.50;;;26.32;42.25
68948;BME280;55996;49.546;7.400;2022-07-29T08:36:29;98464.50;;;26.48;41.35
68948;BME280;55996;49.546;7.400;2022-07-29T08:38:55;98466.63;;;26.70;40.85
68948;BME280;55996;49.546;7.400;2022-07-29T08:41:22;98462.44;;;26.68;40.37
68948;BME280;55996;49.546;7.400;2022-07-29T08:43:48;98464.88;;;26.79;41.08
68948;BME280;55996;49.546;7.400;2022-07-29T08:46:15;98457.34;;;26.83;40.63
68948;BME280;55996;49.546;7.400;2022-07-29T08:48:42;98466.66;;;26.97;40.50
68948;BME280;55996;49.546;7.400;2022-07-29T08:51:07;98463.44;;;27.01;39.75
68948;BME280;55996;49.546;7.400;2022-07-29T08:53:33;98457.34;;;27.26;39.28
68948;BME280;55996;49.546;7.400;2022-07-29T08:55:59;98462.97;;;27.49;39.04
68948;BME280;55996;49.546;7.400;2022-07-29T08:58:26;98461.78;;;27.60;38.88
68948;BME280;55996;49.546;7.400;2022-07-29T09:00:54;98461.16;;;27.82;38.45
68948;BME280;55996;49.546;7.400;2022-07-29T09:03:23;98468.38;;;27.90;39.28
68948;BME280;55996;49.546;7.400;2022-07-29T09:05:50;98458.47;;;27.99;39.12
68948;BME280;55996;49.546;7.400;2022-07-29T09:08:17;98459.84;;;28.11;39.38
68948;BME280;55996;49.546;7.400;2022-07-29T09:10:44;98457.94;;;28.37;38.48
68948;BME280;55996;49.546;7.400;2022-07-29T09:13:09;98456.06;;;28.62;38.33
68948;BME280;55996;49.546;7.400;2022-07-29T09:15:35;98466.53;;;29.05;37.35
68948;BME280;55996;49.546;7.400;2022-07-29T09:18:01;98451.25;;;29.28;36.36
68948;BME280;55996;49.546;7.400;2022-07-29T09:20:27;98454.72;;;29.14;35.90
68948;BME280;55996;49.546;7.400;2022-07-29T09:23:13;98461.19;;;29.28;35.62
68948;BME280;55996;49.546;7.400;2022-07-29T09:25:40;98461.06;;;29.21;36.24
68948;BME280;55996;49.546;7.400;2022-07-29T09:28:14;98462.38;;;29.25;36.84
68948;BME280;55996;49.546;7.400;2022-07-29T09:30:57;98462.22;;;29.58;36.90
68948;BME280;55996;49.546;7.400;2022-07-29T09:33:25;98455.16;;;29.57;36.05
68948;BME280;55996;49.546;7.400;2022-07-29T09:36:02;98450.97;;;29.55;35.75
68948;BME280;55996;49.546;7.400;2022-07-29T09:38:28;98447.25;;;29.79;36.07
68948;BME280;55996;49.546;7.400;2022-07-29T09:40:58;98451.28;;;29.60;36.47
68948;BME280;55996;49.546;7.400;2022-07-29T09:43:25;98441.84;;;30.40;34.99
68948;BME280;55996;49.546;7.400;2022-07-29T09:45:50;98438.25;;;30.78;34.13
68948;BME280;55996;49.546;7.400;2022-07-29T09:48:19;98420.91;;;31.39;32.66
68948;BME280;55996;49.546;7.400;2022-07-29T09:50:46;98434.94;;;31.49;33.42
68948;BME280;55996;49.546;7.400;2022-07-29T09:53:33;98439.47;;;30.75;33.03
68948;BME280;55996;49.546;7.400;2022-07-29T09:55:59;98437.44;;;30.63;33.45
68948;BME280;55996;49.546;7.400;2022-07-29T09:58:24;98440.50;;;30.21;34.80
68948;BME280;55996;49.546;7.400;2022-07-29T10:00:53;98438.16;;;30.03;34.49
68948;BME280;55996;49.546;7.400;2022-07-29T10:03:18;98442.00;;;29.86;35.58
68948;BME280;55996;49.546;7.400;2022-07-29T10:05:45;98443.16;;;29.83;36.48
68948;BME280;55996;49.546;7.400;2022-07-29T10:08:11;98443.81;;;29.93;36.32
68948;BME280;55996;49.546;7.400;2022-07-29T10:10:42;98449.28;;;29.77;35.73
68948;BME280;55996;49.546;7.400;2022-07-29T10:13:13;98444.69;;;29.62;36.17
68948;BME280;55996;49.546;7.400;2022-07-29T10:15:44;98447.97;;;29.10;36.38
68948;BME280;55996;49.546;7.400;2022-07-29T10:18:13;98450.69;;;29.10;36.67
68948;BME280;55996;49.546;7.400;2022-07-29T10:20:39;98448.97;;;29.17;36.48
68948;BME280;55996;49.546;7.400;2022-07-29T10:23:05;98441.47;;;29.36;36.00
68948;BME280;55996;49.546;7.400;2022-07-29T10:25:31;98444.38;;;29.81;35.99
68948;BME280;55996;49.546;7.400;2022-07-29T10:43:37;98432.28;;;30.00;35.75
68948;BME280;55996;49.546;7.400;2022-07-29T10:46:06;98427.03;;;29.60;37.15
68948;BME280;55996;49.546;7.400;2022-07-29T10:48:32;98423.84;;;29.25;37.84
68948;BME280;55996;49.546;7.400;2022-07-29T10:51:00;98424.53;;;29.19;38.88
68948;BME280;55996;49.546;7.400;2022-07-29T10:53:51;98424.41;;;29.20;37.94
68948;BME280;55996;49.546;7.400;2022-07-29T10:56:28;98419.44;;;29.01;37.41
68948;BME280;55996;49.546;7.400;2022-07-29T11:01:53;98417.56;;;28.70;38.02
68948;BME280;55996;49.546;7.400;2022-07-29T11:07:10;98420.13;;;28.46;37.66
68948;BME280;55996;49.546;7.400;2022-07-29T11:09:35;98420.63;;;28.50;37.29
68948;BME280;55996;49.546;7.400;2022-07-29T11:12:01;98414.03;;;28.61;35.86
68948;BME280;55996;49.546;7.400;2022-07-29T11:17:17;98412.84;;;28.72;36.47
68948;BME280;55996;49.546;7.400;2022-07-29T11:19:42;98404.59;;;28.65;36.03
68948;BME280;55996;49.546;7.400;2022-07-29T11:22:10;98418.91;;;28.57;35.38
68948;BME280;55996;49.546;7.400;2022-07-29T11:24:36;98410.91;;;28.41;35.10
68948;BME280;55996;49.546;7.400;2022-07-29T11:27:15;98413.28;;;28.36;36.64
68948;BME280;55996;49.546;7.400;2022-07-29T11:29:51;98417.78;;;28.35;36.50
68948;BME280;55996;49.546;7.400;2022-07-29T11:32:18;98405.03;;;28.37;36.59
68948;BME280;55996;49.546;7.400;2022-07-29T11:34:46;98418.09;;;28.48;38.06
68948;BME280;55996;49.546;7.400;2022-07-29T11:45:08;98402.09;;;29.03;36.98
68948;BME280;55996;49.546;7.400;2022-07-29T11:47:40;98396.03;;;29.01;33.88
68948;BME280;55996;49.546;7.400;2022-07-29T11:50:09;98391.53;;;29.02;34.03
68948;BME280;55996;49.546;7.400;2022-07-29T11:52:37;98386.00;;;28.95;33.98
68948;BME280;55996;49.546;7.400;2022-07-29T11:55:09;98402.00;;;28.88;36.70
68948;BME280;55996;49.546;7.400;2022-07-29T11:57:35;98391.47;;;28.70;34.63
68948;BME280;55996;49.546;7.400;2022-07-29T12:00:06;98393.66;;;28.75;36.37
68948;BME280;55996;49.546;7.400;2022-07-29T12:02:40;98403.03;;;28.79;32.41
68948;BME280;55996;49.546;7.400;2022-07-29T12:05:08;98396.88;;;28.70;35.84
68948;BME280;55996;49.546;7.400;2022-07-29T12:07:33;98395.03;;;28.71;35.70
68948;BME280;55996;49.546;7.400;2022-07-29T12:09:59;98392.97;;;28.73;34.69
68948;BME280;55996;49.546;7.400;2022-07-29T12:12:26;98400.41;;;28.71;33.62
68948;BME280;55996;49.546;7.400;2022-07-29T12:14:51;98396.22;;;28.68;33.73
68948;BME280;55996;49.546;7.400;2022-07-29T12:17:33;98393.25;;;28.86;34.76
68948;BME280;55996;49.546;7.400;2022-07-29T12:20:01;98395.22;;;29.01;35.04
68948;BME280;55996;49.546;7.400;2022-07-29T12:22:36;98392.50;;;29.09;33.70
68948;BME280;55996;49.546;7.400;2022-07-29T12:25:04;98406.19;;;29.30;34.14
68948;BME280;55996;49.546;7.400;2022-07-29T12:27:33;98406.44;;;29.44;32.92
68948;BME280;55996;49.546;7.400;2022-07-29T12:30:05;98396.63;;;29.51;32.89
68948;BME280;55996;49.546;7.400;2022-07-29T12:32:39;98391.72;;;29.55;34.21
68948;BME280;55996;49.546;7.400;2022-07-29T12:35:10;98395.84;;;29.42;31.19
68948;BME280;55996;49.546;7.400;2022-07-29T12:37:38;98396.84;;;29.41;32.30
68948;BME280;55996;49.546;7.400;2022-07-29T12:40:05;98384.13;;;29.58;32.75
68948;BME280;55996;49.546;7.400;2022-07-29T12:42:31;98385.72;;;29.68;32.28
68948;BME280;55996;49.546;7.400;2022-07-29T12:44:57;98383.59;;;29.78;31.71
68948;BME280;55996;49.546;7.400;2022-07-29T12:47:23;98385.41;;;29.86;31.49
68948;BME280;55996;49.546;7.400;2022-07-29T12:49:50;98387.28;;;30.00;31.21
68948;BME280;55996;49.546;7.400;2022-07-29T12:52:30;98387.78;;;29.81;30.39
68948;BME280;55996;49.546;7.400;2022-07-29T12:54:56;98384.59;;;29.77;32.17
68948;BME280;55996;49.546;7.400;2022-07-29T12:57:22;98384.19;;;29.88;32.06
68948;BME280;55996;49.546;7.400;2022-07-29T13:02:29;98383.31;;;29.96;32.30
68948;BME280;55996;49.546;7.400;2022-07-29T13:04:57;98383.03;;;30.06;31.39
68948;BME280;55996;49.546;7.400;2022-07-29T13:07:30;98387.56;;;30.05;30.98
68948;BME280;55996;49.546;7.400;2022-07-29T13:10:20;98385.25;;;30.02;31.50
68948;BME280;55996;49.546;7.400;2022-07-29T13:13:08;98391.66;;;30.01;31.27
68948;BME280;55996;49.546;7.400;2022-07-29T13:15:40;98390.72;;;29.94;30.54
68948;BME280;55996;49.546;7.400;2022-07-29T13:18:27;98389.50;;;29.97;30.05
68948;BME280;55996;49.546;7.400;2022-07-29T13:20:53;98390.72;;;29.94;30.11
68948;BME280;55996;49.546;7.400;2022-07-29T13:23:19;98395.75;;;29.97;30.87
68948;BME280;55996;49.546;7.400;2022-07-29T13:25:44;98398.47;;;29.97;30.47
68948;BME280;55996;49.546;7.400;2022-07-29T13:28:10;98395.84;;;30.04;30.34
68948;BME280;55996;49.546;7.400;2022-07-29T13:30:37;98398.19;;;30.07;30.02
68948;BME280;55996;49.546;7.400;2022-07-29T13:33:03;98396.81;;;30.11;30.06
68948;BME280;55996;49.546;7.400;2022-07-29T13:35:28;98407.50;;;30.04;31.45
68948;BME280;55996;49.546;7.400;2022-07-29T13:37:55;98398.25;;;29.99;30.12
68948;BME280;55996;49.546;7.400;2022-07-29T13:40:20;98402.19;;;29.88;30.51
68948;BME280;55996;49.546;7.400;2022-07-29T13:42:46;98386.00;;;29.73;30.62
68948;BME280;55996;49.546;7.400;2022-07-29T13:45:13;98382.44;;;29.57;29.67
68948;BME280;55996;49.546;7.400;2022-07-29T13:47:38;98385.75;;;29.59;30.14
68948;BME280;55996;49.546;7.400;2022-07-29T13:50:06;98394.31;;;29.63;31.09
68948;BME280;55996;49.546;7.400;2022-07-29T13:52:33;98404.31;;;29.54;31.34